Time;durP1;ratioP1;P1;durP2;ratioP2;P2;SDS_P1;SDS_P2;PMS_P1;PMS_P2;Temp;Humidity;BMP_temperature;BMP_pressure;BME280_temperature;BME280_humidity;BME280_pressure;Samples;Min_cycle;Max_cycle;Signal;HPM_P1;HPM_P2
2024/01/10 00:01:20;;;;;;;;;;;;;;;16.56;35.48;102152.03;5077876;28;1004;-49
2024/01/10 00:03:46;;;;;;;;;;;;;;;15.85;36.60;102155.38;5064987;28;1025;-45
2024/01/10 00:06:12;;;;;;;;;;;;;;;16.64;35.56;102163.16;5066631;28;1043;-49
2024/01/10 00:08:37;;;;;;;;;;;;;;;16.94;34.74;102159.00;5076326;28;1095;-49
2024/01/10 00:11:03;;;;;;;;;;;;;;;15.85;36.91;102159.84;5066709;28;1910;-48
2024/01/10 00:13:29;;;;;;;;;;;;;;;16.35;36.30;102168.13;5075832;28;1063;-48
2024/01/10 00:15:55;;;;;;;;;;;;;;;16.87;34.68;102172.59;5077920;28;1104;-48
2024/01/10 00:18:21;;;;;;;;;;;;;;;16.80;35.16;102157.91;5076573;28;1123;-50
2024/01/10 00:20:47;;;;;;;;;;;;;;;18.40;32.40;102165.38;5058300;28;1051;-47
2024/01/10 00:23:12;;;;;;;;;;;;;;;16.77;34.87;102166.91;5074948;28;1892;-46
2024/01/10 00:25:38;;;;;;;;;;;;;;;16.05;36.10;102166.03;5077480;28;1004;-49
2024/01/10 00:28:04;;;;;;;;;;;;;;;17.41;34.17;102175.22;5063235;28;1130;-48
2024/01/10 00:30:30;;;;;;;;;;;;;;;17.30;34.00;102173.97;5075643;28;1981;-47
2024/01/10 00:32:56;;;;;;;;;;;;;;;16.08;36.16;102169.38;5076930;28;1056;-49
2024/01/10 00:35:21;;;;;;;;;;;;;;;15.77;37.24;102181.41;5077713;28;1096;-44
2024/01/10 00:37:47;;;;;;;;;;;;;;;17.98;33.29;102185.38;5077721;28;1067;-46
2024/01/10 00:40:12;;;;;;;;;;;;;;;16.50;35.50;102204.53;5077475;28;1011;-48
2024/01/10 00:42:38;;;;;;;;;;;;;;;16.74;35.48;102196.28;5076561;28;1063;-46
2024/01/10 00:45:04;;;;;;;;;;;;;;;18.40;32.55;102187.53;5077032;28;1124;-49
2024/01/10 00:47:30;;;;;;;;;;;;;;;16.57;35.45;102196.25;5076942;28;1024;-48
2024/01/10 00:49:55;;;;;;;;;;;;;;;17.27;34.64;102205.22;5077269;28;1910;-47
2024/01/10 00:52:21;;;;;;;;;;;;;;;17.29;34.06;102198.00;5076987;28;1141;-48
2024/01/10 00:54:47;;;;;;;;;;;;;;;16.25;36.02;102207.53;5074499;28;1055;-47
2024/01/10 00:57:12;;;;;;;;;;;;;;;15.78;36.78;102199.91;5076453;28;1023;-50
2024/01/10 00:59:38;;;;;;;;;;;;;;;17.58;34.07;102192.94;5076964;28;1003;-49
2024/01/10 01:02:04;;;;;;;;;;;;;;;16.62;35.23;102207.53;5076651;28;1106;-46
2024/01/10 01:04:29;;;;;;;;;;;;;;;16.03;36.68;102188.19;5077066;28;1190;-49
2024/01/10 01:06:55;;;;;;;;;;;;;;;18.09;33.08;102195.44;5073543;28;1050;-47
2024/01/10 01:09:21;;;;;;;;;;;;;;;16.28;35.61;102189.66;5069527;28;1124;-46
2024/01/10 01:11:46;;;;;;;;;;;;;;;15.83;36.63;102193.56;5076827;28;1922;-47
2024/01/10 01:14:12;;;;;;;;;;;;;;;16.81;35.27;102202.16;5076682;28;1135;-49
2024/01/10 01:16:37;;;;;;;;;;;;;;;16.90;34.83;102195.50;5076504;28;1099;-52
2024/01/10 01:19:03;;;;;;;;;;;;;;;15.89;36.88;102193.25;5073464;28;1108;-48
2024/01/10 01:21:28;;;;;;;;;;;;;;;16.68;35.64;102188.63;5074071;28;1016;-45
2024/01/10 01:23:54;;;;;;;;;;;;;;;18.15;32.65;102178.28;5074085;28;2167;-48
2024/01/10 01:26:20;;;;;;;;;;;;;;;16.32;35.91;102184.19;5075931;28;1099;-48
2024/01/10 01:28:45;;;;;;;;;;;;;;;15.76;37.20;102188.53;5076667;28;1186;-45
2024/01/10 01:31:11;;;;;;;;;;;;;;;15.43;37.43;102189.16;5071517;28;1918;-47
2024/01/10 01:33:38;;;;;;;;;;;;;;;16.81;35.21;102188.88;5066307;28;1100;-49
2024/01/10 01:36:04;;;;;;;;;;;;;;;18.19;32.71;102178.97;5076044;28;1080;-46
2024/01/10 01:38:30;;;;;;;;;;;;;;;16.22;36.12;102195.28;5076059;28;1044;-48
2024/01/10 01:40:55;;;;;;;;;;;;;;;15.71;36.64;102187.88;5076008;28;1155;-49
2024/01/10 01:43:24;;;;;;;;;;;;;;;16.59;35.74;102194.41;5071926;28;1008;-49
2024/01/10 01:45:53;;;;;;;;;;;;;;;18.21;32.63;102190.41;5074248;28;1115;-48
2024/01/10 01:48:22;;;;;;;;;;;;;;;16.94;34.60;102186.44;5076102;28;1098;-48
2024/01/10 01:50:49;;;;;;;;;;;;;;;15.94;36.43;102182.41;5076446;28;1933;-46
2024/01/10 01:53:14;;;;;;;;;;;;;;;16.88;35.14;102189.44;5057808;28;1860;-46
2024/01/10 01:55:43;;;;;;;;;;;;;;;18.29;32.47;102181.97;5075620;28;1139;-46
2024/01/10 01:58:09;;;;;;;;;;;;;;;16.44;35.59;102188.06;5076237;28;1091;-46
2024/01/10 02:00:34;;;;;;;;;;;;;;;15.93;36.66;102186.88;5069221;28;1042;-49
2024/01/10 02:03:00;;;;;;;;;;;;;;;18.04;33.02;102172.66;5058098;28;1159;-47
2024/01/10 02:05:26;;;;;;;;;;;;;;;16.43;35.37;102176.59;5075746;28;1008;-48
2024/01/10 02:07:51;;;;;;;;;;;;;;;15.76;37.03;102177.06;5051454;28;1043;-51
2024/01/10 02:10:18;;;;;;;;;;;;;;;17.80;33.31;102173.13;5074868;28;1905;-49
2024/01/10 02:12:43;;;;;;;;;;;;;;;16.55;35.26;102169.78;5076184;28;1016;-46
2024/01/10 02:15:09;;;;;;;;;;;;;;;16.97;35.09;102170.31;5075782;28;1102;-48
2024/01/10 02:17:34;;;;;;;;;;;;;;;17.72;33.07;102161.09;5075726;28;1490;-46
2024/01/10 02:20:13;;;;;;;;;;;;;;;16.18;35.85;102159.19;5075254;28;1047;-45
2024/01/10 02:22:38;;;;;;;;;;;;;;;16.26;36.10;102161.47;5075659;28;2038;-46
2024/01/10 02:25:05;;;;;;;;;;;;;;;18.25;32.58;102159.97;5075536;28;1115;-45
2024/01/10 02:27:30;;;;;;;;;;;;;;;16.55;35.16;102164.47;5075703;28;1102;-44
2024/01/10 02:29:56;;;;;;;;;;;;;;;15.84;36.74;102161.63;5076030;28;1115;-47
2024/01/10 02:32:23;;;;;;;;;;;;;;;15.45;37.33;102157.25;5063589;28;1135;-46
2024/01/10 02:34:48;;;;;;;;;;;;;;;17.52;33.92;102148.03;5075735;28;1051;-46
2024/01/10 02:37:14;;;;;;;;;;;;;;;16.52;35.13;102154.88;5075730;28;1039;-49
2024/01/10 02:39:40;;;;;;;;;;;;;;;15.68;37.05;102158.84;5075417;28;1066;-49
2024/01/10 02:42:05;;;;;;;;;;;;;;;17.22;34.38;102152.25;5075457;28;1023;-48
2024/01/10 02:44:32;;;;;;;;;;;;;;;16.79;34.68;102165.94;5073022;28;1475;-49
2024/01/10 02:46:58;;;;;;;;;;;;;;;16.92;34.78;102166.19;5074964;28;1571;-48
2024/01/10 02:49:23;;;;;;;;;;;;;;;18.32;32.08;102152.47;5075286;28;1205;-44
2024/01/10 02:51:49;;;;;;;;;;;;;;;16.53;34.99;102161.88;5078331;28;1991;-44
2024/01/10 02:54:14;;;;;;;;;;;;;;;15.82;36.56;102155.53;5070925;28;2066;-45
2024/01/10 02:56:40;;;;;;;;;;;;;;;15.57;37.26;102159.34;5069203;28;1191;-48
2024/01/10 02:59:05;;;;;;;;;;;;;;;17.36;33.92;102165.69;5079077;28;1091;-47
2024/01/10 03:01:31;;;;;;;;;;;;;;;16.38;35.55;102170.63;5079319;28;1135;-47
2024/01/10 03:03:57;;;;;;;;;;;;;;;15.64;36.91;102157.25;5071229;28;1117;-45
2024/01/10 03:06:23;;;;;;;;;;;;;;;17.77;33.28;102160.81;5072723;28;1036;-48
2024/01/10 03:08:49;;;;;;;;;;;;;;;16.25;35.37;102167.69;5075381;28;858;-49
2024/01/10 03:11:15;;;;;;;;;;;;;;;17.84;33.11;102164.00;5078575;28;1984;-46
2024/01/10 03:13:43;;;;;;;;;;;;;;;17.84;32.67;102156.88;5078768;28;1046;-48
2024/01/10 03:16:08;;;;;;;;;;;;;;;16.38;35.40;102166.16;5060909;28;1064;-46
2024/01/10 03:18:34;;;;;;;;;;;;;;;15.92;36.48;102145.34;5060442;28;1031;-47
2024/01/10 03:21:00;;;;;;;;;;;;;;;17.21;34.18;102163.84;5067251;28;1015;-48
2024/01/10 03:23:27;;;;;;;;;;;;;;;18.07;32.31;102149.41;5077138;28;2074;-48
2024/01/10 03:25:53;;;;;;;;;;;;;;;16.31;35.60;102151.50;5078126;28;1063;-46
2024/01/10 03:28:18;;;;;;;;;;;;;;;15.83;36.77;102146.63;5071121;28;1029;-49
2024/01/10 03:30:44;;;;;;;;;;;;;;;17.91;32.91;102148.56;5072488;28;1898;-48
2024/01/10 03:33:10;;;;;;;;;;;;;;;16.24;35.67;102150.06;5073142;28;1136;-46
2024/01/10 03:35:35;;;;;;;;;;;;;;;16.35;35.79;102152.19;5078320;28;1075;-45
2024/01/10 03:38:01;;;;;;;;;;;;;;;17.53;33.38;102139.97;5078793;28;1084;-47
2024/01/10 03:40:26;;;;;;;;;;;;;;;16.10;35.76;102143.63;5078613;28;1122;-47
2024/01/10 03:42:52;;;;;;;;;;;;;;;15.78;36.76;102146.00;5078539;28;1032;-49
2024/01/10 03:45:20;;;;;;;;;;;;;;;17.97;32.73;102137.53;5065814;28;1105;-45
2024/01/10 03:47:49;;;;;;;;;;;;;;;16.59;34.93;102144.78;5078500;28;1015;-48
2024/01/10 03:50:19;;;;;;;;;;;;;;;15.79;36.26;102143.28;5078182;28;1906;-45
2024/01/10 03:52:44;;;;;;;;;;;;;;;17.90;32.81;102133.53;5078462;28;1072;-47
2024/01/10 03:55:10;;;;;;;;;;;;;;;16.22;35.65;102146.59;5078136;28;1186;-48
2024/01/10 03:57:36;;;;;;;;;;;;;;;15.71;36.70;102142.78;5073034;28;833;-48
2024/01/10 04:00:02;;;;;;;;;;;;;;;16.37;35.52;102152.97;5077402;28;1078;-49
2024/01/10 04:02:30;;;;;;;;;;;;;;;17.97;32.49;102145.53;5077065;28;1107;-50
2024/01/10 04:04:56;;;;;;;;;;;;;;;16.12;35.66;102148.84;5077269;28;1060;-50
2024/01/10 04:07:22;;;;;;;;;;;;;;;17.68;33.30;102153.38;5078357;28;1055;-48
2024/01/10 04:09:48;;;;;;;;;;;;;;;17.60;33.12;102157.28;5064387;28;1083;-47
2024/01/10 04:12:14;;;;;;;;;;;;;;;16.20;35.41;102152.00;5078321;28;1983;-50
2024/01/10 04:14:39;;;;;;;;;;;;;;;17.20;34.15;102152.34;5077571;28;1063;-50
2024/01/10 04:17:06;;;;;;;;;;;;;;;18.13;32.16;102150.91;5077582;28;1067;-50
2024/01/10 04:19:32;;;;;;;;;;;;;;;16.43;35.37;102154.47;5077698;28;1051;-47
2024/01/10 04:21:58;;;;;;;;;;;;;;;15.84;36.14;102160.78;5071182;28;916;-49
2024/01/10 04:24:24;;;;;;;;;;;;;;;16.35;35.95;102153.03;5077175;28;1152;-47
2024/01/10 04:26:49;;;;;;;;;;;;;;;17.56;33.27;102152.22;5077501;28;1071;-46
2024/01/10 04:29:15;;;;;;;;;;;;;;;16.06;35.71;102155.34;5077452;28;1112;-46
2024/01/10 04:31:40;;;;;;;;;;;;;;;17.22;34.00;102153.13;5077436;28;1930;-49
2024/01/10 04:34:06;;;;;;;;;;;;;;;18.08;32.05;102164.41;5066226;28;1269;-48
2024/01/10 04:36:31;;;;;;;;;;;;;;;16.46;35.06;102163.16;5076199;28;2173;-51
2024/01/10 04:38:57;;;;;;;;;;;;;;;17.86;32.93;102159.47;5076676;28;1919;-49
2024/01/10 04:41:23;;;;;;;;;;;;;;;17.25;33.59;102176.88;5076881;28;1793;-52
2024/01/10 04:43:48;;;;;;;;;;;;;;;16.10;35.62;102167.50;5075235;28;1951;-49
2024/01/10 04:46:14;;;;;;;;;;;;;;;18.14;32.45;102171.25;5070353;28;2051;-51
2024/01/10 04:48:40;;;;;;;;;;;;;;;16.71;34.48;102183.16;5076434;28;1861;-54
2024/01/10 04:51:05;;;;;;;;;;;;;;;15.97;35.97;102175.19;5076490;28;2134;-51
2024/01/10 04:53:31;;;;;;;;;;;;;;;17.94;32.84;102181.19;5071764;28;1039;-53
2024/01/10 04:55:56;;;;;;;;;;;;;;;16.88;34.11;102184.94;5076006;28;1255;-53
2024/01/10 04:58:22;;;;;;;;;;;;;;;16.05;35.79;102187.28;5065575;28;1055;-43
2024/01/10 05:00:47;;;;;;;;;;;;;;;17.06;34.27;102179.63;5076861;28;1067;-44
2024/01/10 05:03:13;;;;;;;;;;;;;;;18.19;32.13;102194.94;5071042;28;1071;-45
2024/01/10 05:05:39;;;;;;;;;;;;;;;16.44;35.20;102191.56;5068690;28;1139;-42
2024/01/10 05:08:04;;;;;;;;;;;;;;;15.93;35.97;102188.69;5059701;28;1211;-46
2024/01/10 05:10:30;;;;;;;;;;;;;;;17.04;34.20;102194.78;5069602;28;1982;-46
2024/01/10 05:12:55;;;;;;;;;;;;;;;18.07;32.00;102202.66;5075432;28;1039;-44
2024/01/10 05:15:21;;;;;;;;;;;;;;;16.40;35.15;102213.88;5064493;28;1100;-43
2024/01/10 05:17:47;;;;;;;;;;;;;;;16.19;35.53;102213.13;5056866;28;1134;-43
2024/01/10 05:20:13;;;;;;;;;;;;;;;18.13;32.16;102219.28;5074610;28;2645;-45
2024/01/10 05:22:39;;;;;;;;;;;;;;;16.72;34.46;102214.09;5058660;28;990;-45
2024/01/10 05:25:05;;;;;;;;;;;;;;;16.94;33.87;102221.00;5064304;28;1004;-46
2024/01/10 05:27:31;;;;;;;;;;;;;;;16.61;34.36;102219.97;5061864;28;1054;-45
2024/01/10 05:29:56;;;;;;;;;;;;;;;16.23;35.01;102220.88;5056299;28;1008;-43
2024/01/10 05:32:22;;;;;;;;;;;;;;;15.96;35.47;102225.69;5069611;28;1910;-44
2024/01/10 05:34:48;;;;;;;;;;;;;;;16.24;35.04;102216.44;5065096;28;1178;-44
2024/01/10 05:37:13;;;;;;;;;;;;;;;17.57;32.65;102220.47;5075690;28;1067;-45
2024/01/10 05:39:39;;;;;;;;;;;;;;;16.61;34.17;102221.75;5076280;28;1098;-43
2024/01/10 05:42:05;;;;;;;;;;;;;;;16.08;35.28;102224.28;5075715;28;1103;-45
2024/01/10 05:44:30;;;;;;;;;;;;;;;16.92;33.67;102228.19;5068689;28;1118;-44
2024/01/10 05:46:59;;;;;;;;;;;;;;;17.46;32.54;102229.91;5073091;28;897;-46
2024/01/10 05:49:25;;;;;;;;;;;;;;;16.48;34.00;102232.13;5061419;28;2467;-46
2024/01/10 05:51:50;;;;;;;;;;;;;;;15.99;35.10;102230.88;5066887;28;1910;-41
2024/01/10 05:54:18;;;;;;;;;;;;;;;17.18;33.17;102239.34;5075911;28;1056;-49
2024/01/10 05:56:43;;;;;;;;;;;;;;;17.88;31.95;102234.78;5075486;28;1031;-48
2024/01/10 05:59:11;;;;;;;;;;;;;;;16.83;33.51;102240.13;5065339;28;898;-46
2024/01/10 06:01:38;;;;;;;;;;;;;;;16.18;34.78;102235.31;5072950;28;1218;-50
2024/01/10 06:04:04;;;;;;;;;;;;;;;17.29;32.91;102237.88;5065724;28;1226;-50
2024/01/10 06:06:29;;;;;;;;;;;;;;;17.62;32.17;102240.56;5072727;28;1052;-47
2024/01/10 06:08:55;;;;;;;;;;;;;;;16.57;33.75;102241.44;5070544;28;1026;-47
2024/01/10 06:11:21;;;;;;;;;;;;;;;16.11;34.88;102237.41;5058594;28;1914;-50
2024/01/10 06:13:46;;;;;;;;;;;;;;;17.22;32.88;102240.88;5058321;28;1215;-46
2024/01/10 06:16:13;;;;;;;;;;;;;;;17.72;31.92;102234.75;5075018;28;1034;-50
2024/01/10 06:18:39;;;;;;;;;;;;;;;16.59;33.61;102247.53;5064111;28;1103;-51
2024/01/10 06:21:04;;;;;;;;;;;;;;;16.18;34.35;102251.25;5063882;28;2367;-47
2024/01/10 06:23:30;;;;;;;;;;;;;;;17.12;33.01;102242.28;5067623;28;1356;-50
2024/01/10 06:25:55;;;;;;;;;;;;;;;17.67;31.96;102256.28;5071367;28;1336;-48
2024/01/10 06:28:21;;;;;;;;;;;;;;;16.59;33.98;102259.03;5071596;28;1084;-47
2024/01/10 06:30:47;;;;;;;;;;;;;;;16.04;34.60;102260.72;5065950;28;1985;-48
2024/01/10 06:33:13;;;;;;;;;;;;;;;17.33;32.52;102274.03;5067243;28;1084;-47
2024/01/10 06:35:39;;;;;;;;;;;;;;;17.66;31.69;102280.31;5076159;28;1255;-50
2024/01/10 06:38:04;;;;;;;;;;;;;;;16.58;33.59;102267.06;5078664;28;1031;-51
2024/01/10 06:40:30;;;;;;;;;;;;;;;16.07;34.41;102268.53;5079034;28;1100;-46
2024/01/10 06:42:56;;;;;;;;;;;;;;;17.30;32.41;102279.53;5069407;28;1070;-48
2024/01/10 06:45:22;;;;;;;;;;;;;;;17.74;31.66;102281.66;5072849;28;1207;-49
2024/01/10 06:47:47;;;;;;;;;;;;;;;16.71;33.49;102288.59;5069083;28;1226;-51
2024/01/10 06:50:13;;;;;;;;;;;;;;;16.13;34.36;102288.66;5059060;28;2383;-47
2024/01/10 06:52:39;;;;;;;;;;;;;;;16.99;33.00;102292.53;5072008;28;1071;-48
2024/01/10 06:55:04;;;;;;;;;;;;;;;17.92;31.30;102302.88;5078674;28;1131;-48
2024/01/10 06:57:30;;;;;;;;;;;;;;;16.82;33.06;102306.66;5067544;28;1159;-48
2024/01/10 06:59:56;;;;;;;;;;;;;;;16.24;34.19;102306.72;5065624;28;1124;-46
2024/01/10 07:02:22;;;;;;;;;;;;;;;17.10;32.75;102310.66;5078759;28;1143;-47
2024/01/10 07:04:48;;;;;;;;;;;;;;;17.72;31.55;102314.59;5076320;28;1301;-45
2024/01/10 07:07:14;;;;;;;;;;;;;;;16.84;33.00;102307.44;5075027;28;902;-51
2024/01/10 07:09:40;;;;;;;;;;;;;;;16.29;34.13;102310.03;5074383;28;1191;-51
2024/01/10 07:12:07;;;;;;;;;;;;;;;17.08;33.09;102304.53;5077493;28;1980;-52
2024/01/10 07:14:32;;;;;;;;;;;;;;;17.84;31.59;102308.63;5072192;28;1358;-51
2024/01/10 07:16:58;;;;;;;;;;;;;;;16.71;33.36;102317.81;5077970;28;1292;-51
2024/01/10 07:19:23;;;;;;;;;;;;;;;16.16;34.34;102309.75;5076583;28;2414;-49
2024/01/10 07:21:50;;;;;;;;;;;;;;;17.33;32.51;102332.56;5059236;28;992;-51
2024/01/10 07:24:15;;;;;;;;;;;;;;;17.48;31.78;102329.09;5069871;28;1066;-51
2024/01/10 07:26:41;;;;;;;;;;;;;;;16.55;33.61;102321.22;5073861;28;1138;-53
2024/01/10 07:29:08;;;;;;;;;;;;;;;16.36;33.92;102332.72;5069478;28;1148;-48
2024/01/10 07:31:34;;;;;;;;;;;;;;;17.76;31.69;102324.16;5077476;28;1988;-56
2024/01/10 07:33:59;;;;;;;;;;;;;;;17.10;32.68;102324.78;5077780;28;1183;-54
2024/01/10 07:36:29;;;;;;;;;;;;;;;16.32;33.89;102333.78;5060026;28;1108;-55
2024/01/10 07:38:57;;;;;;;;;;;;;;;16.77;33.76;102329.03;5068993;28;1111;-55
2024/01/10 07:41:22;;;;;;;;;;;;;;;17.77;31.60;102325.03;5077484;28;1227;-52
2024/01/10 07:43:48;;;;;;;;;;;;;;;16.67;33.34;102335.69;5078443;28;1115;-51
2024/01/10 07:46:14;;;;;;;;;;;;;;;16.15;34.25;102324.81;5072835;28;1046;-52
2024/01/10 07:48:40;;;;;;;;;;;;;;;17.57;32.06;102327.78;5070880;28;996;-50
2024/01/10 07:51:06;;;;;;;;;;;;;;;17.20;32.23;102324.34;5067993;28;1959;-54
2024/01/10 07:53:31;;;;;;;;;;;;;;;16.41;33.87;102324.53;5046978;28;1109;-52
2024/01/10 07:55:57;;;;;;;;;;;;;;;17.16;32.57;102320.97;5077184;28;1028;-51
2024/01/10 07:58:22;;;;;;;;;;;;;;;17.61;31.83;102328.47;5077348;28;1122;-51
2024/01/10 08:00:48;;;;;;;;;;;;;;;16.56;33.45;102319.41;5058398;28;1147;-54
2024/01/10 08:03:14;;;;;;;;;;;;;;;16.20;34.13;102323.75;5070317;28;1036;-52
2024/01/10 08:05:39;;;;;;;;;;;;;;;17.57;31.99;102333.09;5077389;28;1079;-53
2024/01/10 08:08:05;;;;;;;;;;;;;;;17.47;32.00;102334.50;5065038;28;1023;-52
2024/01/10 08:10:31;;;;;;;;;;;;;;;16.58;33.32;102337.00;5076061;28;2000;-51
2024/01/10 08:12:56;;;;;;;;;;;;;;;16.22;34.33;102341.31;5077798;28;999;-53
2024/01/10 08:15:22;;;;;;;;;;;;;;;17.64;31.96;102338.97;5064048;28;1117;-53
2024/01/10 08:17:48;;;;;;;;;;;;;;;17.23;32.39;102341.00;5076155;28;1340;-55
2024/01/10 08:20:14;;;;;;;;;;;;;;;16.40;33.76;102334.28;5072373;28;2415;-51
2024/01/10 08:22:41;;;;;;;;;;;;;;;15.99;34.65;102340.56;5075761;28;1348;-52
2024/01/10 08:25:06;;;;;;;;;;;;;;;17.44;32.20;102340.84;5064381;28;1218;-52
2024/01/10 08:27:33;;;;;;;;;;;;;;;17.79;31.35;102336.41;5077428;28;1023;-49
2024/01/10 08:29:59;;;;;;;;;;;;;;;16.70;33.23;102338.22;5077446;28;1110;-55
2024/01/10 08:32:24;;;;;;;;;;;;;;;16.11;34.11;102336.50;5071137;28;1979;-54
2024/01/10 08:34:50;;;;;;;;;;;;;;;17.21;32.62;102339.34;5061955;28;1105;-56
2024/01/10 08:37:18;;;;;;;;;;;;;;;17.83;31.40;102338.00;5062222;28;1127;-58
2024/01/10 08:39:44;;;;;;;;;;;;;;;16.68;33.10;102333.91;5076670;28;1050;-55
2024/01/10 08:42:10;;;;;;;;;;;;;;;16.16;34.16;102329.16;5076946;28;1115;-57
2024/01/10 08:44:35;;;;;;;;;;;;;;;16.67;33.39;102333.03;5064994;28;1059;-57
2024/01/10 08:47:01;;;;;;;;;;;;;;;17.89;31.63;102323.47;5068271;28;1152;-60
2024/01/10 08:49:26;;;;;;;;;;;;;;;17.13;32.39;102329.94;5065568;28;1880;-55
2024/01/10 08:51:53;;;;;;;;;;;;;;;16.34;33.63;102321.31;5075365;28;1963;-55
2024/01/10 08:54:19;;;;;;;;;;;;;;;16.37;34.09;102320.28;5064753;28;1114;-53
2024/01/10 08:56:45;;;;;;;;;;;;;;;17.79;31.60;102310.66;5062300;28;1230;-55
2024/01/10 08:59:11;;;;;;;;;;;;;;;17.15;32.56;102313.91;5050255;28;1123;-59
2024/01/10 09:01:38;;;;;;;;;;;;;;;16.42;34.05;102323.59;5075745;28;1195;-53
2024/01/10 09:04:04;;;;;;;;;;;;;;;16.00;34.58;102313.09;5073818;28;1379;-51
2024/01/10 09:06:31;;;;;;;;;;;;;;;17.30;32.65;102319.41;5075993;28;1117;-52
2024/01/10 09:08:56;;;;;;;;;;;;;;;17.70;31.59;102316.50;5076101;28;1357;-52
2024/01/10 09:11:22;;;;;;;;;;;;;;;16.66;33.20;102307.41;5067886;28;1950;-52
2024/01/10 09:13:49;;;;;;;;;;;;;;;16.33;34.13;102311.59;5075894;28;1267;-57
2024/01/10 09:16:15;;;;;;;;;;;;;;;17.81;31.62;102306.13;5070099;28;1059;-55
2024/01/10 09:18:40;;;;;;;;;;;;;;;17.05;32.74;102305.50;5075220;28;1122;-58
2024/01/10 09:21:06;;;;;;;;;;;;;;;16.34;33.89;102308.03;5074593;28;2216;-58
2024/01/10 09:23:32;;;;;;;;;;;;;;;16.40;34.32;102306.84;5076091;28;1179;-50
2024/01/10 09:25:58;;;;;;;;;;;;;;;17.80;31.90;102306.22;5074840;28;1168;-52
2024/01/10 09:28:23;;;;;;;;;;;;;;;16.88;32.97;102293.94;5072168;28;1239;-57
2024/01/10 09:30:49;;;;;;;;;;;;;;;16.28;34.00;102298.53;5076129;28;1968;-56
2024/01/10 09:33:14;;;;;;;;;;;;;;;16.99;33.10;102290.75;5076145;28;1163;-56
2024/01/10 09:35:40;;;;;;;;;;;;;;;17.71;31.88;102287.13;5070781;28;1301;-56
2024/01/10 09:38:06;;;;;;;;;;;;;;;16.63;33.46;102289.81;5075920;28;1079;-55
2024/01/10 09:40:31;;;;;;;;;;;;;;;16.24;34.33;102275.72;5075332;28;1336;-54
2024/01/10 09:42:57;;;;;;;;;;;;;;;17.59;31.87;102287.78;5058337;28;1384;-53
2024/01/10 09:45:23;;;;;;;;;;;;;;;17.39;32.08;102271.06;5075832;28;1329;-53
2024/01/10 09:47:56;;;;;;;;;;;;;;;16.50;33.65;102281.59;5076116;28;837;-56
2024/01/10 09:50:22;;;;;;;;;;;;;;;16.49;33.75;102273.69;5065148;28;2497;-56
2024/01/10 09:52:51;;;;;;;;;;;;;;;18.14;31.38;102272.44;5066470;28;1123;-55
2024/01/10 09:55:17;;;;;;;;;;;;;;;16.90;33.05;102259.28;5062587;28;1054;-54
2024/01/10 09:57:42;;;;;;;;;;;;;;;16.35;34.06;102259.28;5075506;28;1135;-53
2024/01/10 10:00:11;;;;;;;;;;;;;;;16.95;33.28;102261.75;5067232;28;1096;-53
2024/01/10 10:02:38;;;;;;;;;;;;;;;17.88;31.60;102248.09;5075829;28;1146;-55
2024/01/10 10:05:04;;;;;;;;;;;;;;;16.84;33.48;102249.84;5075485;28;1118;-55
2024/01/10 10:07:30;;;;;;;;;;;;;;;16.19;34.74;102234.38;5058134;28;1020;-52
2024/01/10 10:09:58;;;;;;;;;;;;;;;16.98;33.24;102232.34;5057344;28;1286;-56
2024/01/10 10:12:41;;;;;;;;;;;;;;;17.85;31.78;102225.16;5055394;28;1918;-55
2024/01/10 10:15:13;;;;;;;;;;;;;;;16.66;33.42;102222.41;5062751;28;1032;-55
2024/01/10 10:17:45;;;;;;;;;;;;;;;16.13;34.45;102201.03;5075321;28;1143;-53
2024/01/10 10:20:13;;;;;;;;;;;;;;;16.92;33.36;102211.38;5061831;28;2693;-55
2024/01/10 10:22:39;;;;;;;;;;;;;;;18.07;31.58;102204.44;5074488;28;1020;-54
2024/01/10 10:25:05;;;;;;;;;;;;;;;16.96;32.96;102203.19;5045611;28;874;-54
2024/01/10 10:27:30;;;;;;;;;;;;;;;16.33;34.09;102194.75;5061301;28;1056;-54
2024/01/10 10:29:56;;;;;;;;;;;;;;;16.37;34.28;102187.50;5075408;28;993;-53
2024/01/10 10:32:21;;;;;;;;;;;;;;;17.79;32.11;102188.22;5061550;28;1987;-53
2024/01/10 10:34:47;;;;;;;;;;;;;;;17.28;32.67;102178.53;5073438;28;1476;-50
2024/01/10 10:37:13;;;;;;;;;;;;;;;16.46;33.88;102180.88;5062464;28;869;-58
2024/01/10 10:39:38;;;;;;;;;;;;;;;16.20;34.78;102175.06;5075347;28;1113;-53
2024/01/10 10:42:04;;;;;;;;;;;;;;;17.70;32.15;102172.78;5074730;28;1253;-55
2024/01/10 10:44:30;;;;;;;;;;;;;;;17.09;32.87;102160.88;5056433;28;1250;-53
2024/01/10 10:46:55;;;;;;;;;;;;;;;16.39;34.37;102170.56;5056588;28;1001;-52
2024/01/10 10:49:23;;;;;;;;;;;;;;;16.55;34.06;102156.50;5050519;28;2403;-50
2024/01/10 10:51:49;;;;;;;;;;;;;;;17.90;31.81;102149.50;5055643;28;1981;-55
2024/01/10 10:54:14;;;;;;;;;;;;;;;16.98;33.12;102147.28;5062421;28;1051;-56
2024/01/10 10:56:40;;;;;;;;;;;;;;;16.24;34.64;102148.28;5073442;28;1008;-58
2024/01/10 10:59:05;;;;;;;;;;;;;;;17.05;33.35;102143.34;5042351;28;1057;-55
2024/01/10 11:01:31;;;;;;;;;;;;;;;17.77;31.84;102136.03;5049812;28;1215;-56
2024/01/10 11:03:57;;;;;;;;;;;;;;;16.73;33.48;102141.41;5056431;28;1369;-53
2024/01/10 11:06:23;;;;;;;;;;;;;;;16.26;34.55;102141.09;5075347;28;1289;-58
2024/01/10 11:08:51;;;;;;;;;;;;;;;17.31;32.71;102141.13;5075170;28;1142;-53
2024/01/10 11:11:32;;;;;;;;;;;;;;;17.34;32.66;102137.44;5057360;28;1898;-51
2024/01/10 11:14:10;;;;;;;;;;;;;;;16.39;34.10;102130.72;5066662;28;1445;-54
2024/01/10 11:16:54;;;;;;;;;;;;;;;16.95;33.40;102124.34;5074804;28;1190;-50
2024/01/10 11:19:38;;;;;;;;;;;;;;;17.92;31.52;102126.28;5067945;28;2264;-54
2024/01/10 11:22:13;;;;;;;;;;;;;;;16.71;33.44;102126.50;5068113;28;1143;-53
2024/01/10 11:24:39;;;;;;;;;;;;;;;16.23;34.50;102116.50;5073938;28;1372;-48
2024/01/10 11:27:09;;;;;;;;;;;;;;;16.97;33.38;102122.47;5058826;28;1098;-49
2024/01/10 11:29:37;;;;;;;;;;;;;;;17.80;31.97;102118.06;5045330;28;1354;-56
2024/01/10 11:32:02;;;;;;;;;;;;;;;16.73;33.44;102124.63;5077393;28;1909;-55
2024/01/10 11:34:28;;;;;;;;;;;;;;;16.14;34.67;102125.75;5053442;28;1262;-53
2024/01/10 11:37:09;;;;;;;;;;;;;;;16.82;33.46;102120.63;5055515;28;1323;-51
2024/01/10 11:39:35;;;;;;;;;;;;;;;17.89;31.88;102119.34;5065931;28;1012;-56
2024/01/10 11:42:01;;;;;;;;;;;;;;;16.82;33.41;102116.16;5078504;28;1123;-54
2024/01/10 11:44:27;;;;;;;;;;;;;;;16.23;34.45;102106.72;5077708;28;1030;-51
2024/01/10 11:46:53;;;;;;;;;;;;;;;17.72;32.24;102110.53;5065043;28;993;-51
2024/01/10 11:49:19;;;;;;;;;;;;;;;17.78;32.26;102109.34;5070461;28;2492;-51
2024/01/10 11:51:45;;;;;;;;;;;;;;;16.77;33.94;102110.22;5064463;28;1914;-53
2024/01/10 11:54:10;;;;;;;;;;;;;;;16.22;34.66;102115.63;5070504;28;1116;-51
2024/01/10 11:56:39;;;;;;;;;;;;;;;16.49;34.80;102109.88;5058442;28;1075;-50
2024/01/10 11:59:11;;;;;;;;;;;;;;;17.83;32.26;102103.75;5077544;28;1024;-52
2024/01/10 12:01:37;;;;;;;;;;;;;;;17.12;33.51;102104.00;5074045;28;946;-57
2024/01/10 12:04:03;;;;;;;;;;;;;;;16.59;34.47;102096.97;5065990;28;1027;-52
2024/01/10 12:06:29;;;;;;;;;;;;;;;15.98;35.26;102107.91;5075493;28;1223;-50
2024/01/10 12:08:55;;;;;;;;;;;;;;;17.19;33.41;102102.75;5072546;28;1426;-50
2024/01/10 12:11:20;;;;;;;;;;;;;;;17.86;32.17;102104.44;5077544;28;1976;-52
2024/01/10 12:13:46;;;;;;;;;;;;;;;16.80;33.66;102103.91;5077396;28;977;-54
2024/01/10 12:16:11;;;;;;;;;;;;;;;16.14;35.17;102093.91;5075536;28;1206;-49
2024/01/10 12:18:37;;;;;;;;;;;;;;;16.64;34.38;102094.06;5074308;28;1253;-54
2024/01/10 12:21:04;;;;;;;;;;;;;;;17.89;32.27;102098.06;5072621;28;2384;-48
2024/01/10 12:23:31;;;;;;;;;;;;;;;16.85;33.86;102099.22;5069085;28;1185;-48
2024/01/10 12:26:04;;;;;;;;;;;;;;;16.19;34.95;102102.50;5075999;28;1174;-52
2024/01/10 12:28:30;;;;;;;;;;;;;;;16.79;34.26;102108.34;5076919;28;1200;-56
2024/01/10 12:30:57;;;;;;;;;;;;;;;18.31;31.96;102105.47;5074734;28;1915;-53
2024/01/10 12:33:23;;;;;;;;;;;;;;;16.94;33.82;102096.06;5075002;28;1087;-58
2024/01/10 12:36:02;;;;;;;;;;;;;;;16.25;35.04;102094.22;5076580;28;1107;-51
2024/01/10 12:38:28;;;;;;;;;;;;;;;16.30;35.16;102103.75;5075443;28;1147;-51
2024/01/10 12:40:54;;;;;;;;;;;;;;;17.70;32.68;102096.44;5048655;28;1035;-49
2024/01/10 12:43:20;;;;;;;;;;;;;;;17.00;33.53;102092.19;5064816;28;1218;-53